createdAt,value
2018-09-15T00:00:58.826Z,67.14
2018-09-15T00:03:27.659Z,66.90
2018-09-15T00:05:57.316Z,67.08
2018-09-15T00:08:26.011Z,67.32
2018-09-15T00:10:55.830Z,67.09
2018-09-15T00:13:24.542Z,67.31
2018-09-15T00:15:53.230Z,67.03
2018-09-15T00:18:21.888Z,67.33
2018-09-15T00:20:50.547Z,67.04
2018-09-15T00:23:19.289Z,67.71
2018-09-15T00:25:47.917Z,68.09
2018-09-15T00:28:16.600Z,68.60
2018-09-15T00:30:45.292Z,68.70
2018-09-15T00:33:13.936Z,68.44
2018-09-15T00:35:43.482Z,69.10
2018-09-15T00:38:12.188Z,68.94
2018-09-15T00:40:41.476Z,69.35
2018-09-15T00:43:10.189Z,69.29
2018-09-15T00:45:39.036Z,69.75
2018-09-15T00:48:08.089Z,69.73
2018-09-15T00:50:36.881Z,69.88
2018-09-15T00:53:05.546Z,70.18
2018-09-15T00:55:34.178Z,70.23
2018-09-15T00:58:02.859Z,70.48
2018-09-15T01:00:32.403Z,70.35
2018-09-15T01:03:01.170Z,70.56
2018-09-15T01:05:29.911Z,70.95
2018-09-15T01:07:58.601Z,70.95
2018-09-15T01:10:27.278Z,70.67
2018-09-15T01:12:56.011Z,70.93
2018-09-15T01:15:24.697Z,70.74
2018-09-15T01:17:53.364Z,70.57
2018-09-15T01:20:22.137Z,70.49
2018-09-15T01:22:51.607Z,70.64
2018-09-15T01:25:20.260Z,70.92
2018-09-15T01:27:48.938Z,71.25
2018-09-15T01:31:20.785Z,70.77
2018-09-15T01:33:49.524Z,70.55
2018-09-15T01:36:18.208Z,70.61
2018-09-15T01:38:46.932Z,70.46
2018-09-15T01:41:16.171Z,70.60
2018-09-15T01:43:44.920Z,70.87
2018-09-15T01:46:13.602Z,70.94
2018-09-15T01:48:42.281Z,71.11
2018-09-15T01:51:10.955Z,71.09
2018-09-15T01:53:39.688Z,71.09
2018-09-15T01:56:08.388Z,70.95
2018-09-15T01:58:37.061Z,71.35
2018-09-15T02:01:05.747Z,71.61
2018-09-15T02:03:34.420Z,71.66
2018-09-15T02:06:03.077Z,71.83
2018-09-15T02:08:31.802Z,71.09
2018-09-15T02:11:00.448Z,71.56
2018-09-15T02:13:29.136Z,71.57
2018-09-15T02:15:57.823Z,71.58
2018-09-15T02:18:26.461Z,71.82
2018-09-15T02:20:55.149Z,71.92
2018-09-15T02:23:23.811Z,71.83
2018-09-15T02:25:52.610Z,72.43
2018-09-15T02:28:21.261Z,72.45
2018-09-15T02:30:49.942Z,72.43
2018-09-15T02:33:18.601Z,72.66
2018-09-15T02:35:47.247Z,72.89
2018-09-15T02:38:15.984Z,73.07
2018-09-15T02:40:44.659Z,73.17
2018-09-15T02:43:13.321Z,73.43
2018-09-15T02:45:42.037Z,73.37
2018-09-15T02:48:10.717Z,73.52
2018-09-15T02:50:39.403Z,73.58
2018-09-15T02:53:08.051Z,73.48
2018-09-15T02:55:36.713Z,73.90
2018-09-15T02:58:05.479Z,73.59
2018-09-15T03:00:34.205Z,73.74
2018-09-15T03:03:02.883Z,73.42
2018-09-15T03:05:31.557Z,73.77
2018-09-15T03:08:00.267Z,73.89
2018-09-15T03:10:28.931Z,74.10
2018-09-15T03:12:57.606Z,74.20
2018-09-15T03:15:26.318Z,74.32
2018-09-15T03:17:54.995Z,74.79
2018-09-15T03:20:23.676Z,74.25
2018-09-15T03:22:53.033Z,74.40
2018-09-15T03:25:21.697Z,74.02
2018-09-15T03:27:50.372Z,74.21
2018-09-15T03:30:19.151Z,74.14
2018-09-15T03:32:47.820Z,74.11
2018-09-15T03:35:16.503Z,74.31
2018-09-15T03:37:45.231Z,74.39
2018-09-15T03:40:13.901Z,74.52
2018-09-15T03:42:42.570Z,74.35
2018-09-15T03:45:11.250Z,74.10
2018-09-15T03:47:40.019Z,74.78
2018-09-15T03:50:08.744Z,74.50
2018-09-15T03:52:37.413Z,74.34
2018-09-15T03:55:06.209Z,75.22
2018-09-15T04:00:02.598Z,74.54
2018-09-15T04:02:31.208Z,74.16
2018-09-15T04:05:00.141Z,74.37
2018-09-15T04:07:28.860Z,74.50
2018-09-15T04:09:57.555Z,74.23
2018-09-15T04:12:26.247Z,74.48
2018-09-15T04:14:54.963Z,74.18
2018-09-15T04:17:23.616Z,74.44
2018-09-15T04:19:52.290Z,74.49
2018-09-15T04:22:20.944Z,74.93
2018-09-15T04:24:49.637Z,74.78
2018-09-15T04:27:18.306Z,74.73
2018-09-15T04:29:47.004Z,74.54
2018-09-15T04:32:16.300Z,74.62
2018-09-15T04:34:44.970Z,74.98
2018-09-15T04:37:13.670Z,74.77
2018-09-15T04:39:42.356Z,75.04
2018-09-15T04:42:11.070Z,74.94
2018-09-15T04:44:39.785Z,74.41
2018-09-15T04:47:08.432Z,75.19
2018-09-15T04:49:37.170Z,74.72
2018-09-15T04:52:05.846Z,74.53
2018-09-15T04:54:34.583Z,74.11
2018-09-15T04:57:03.296Z,74.31
2018-09-15T04:59:32.012Z,74.29
2018-09-15T05:02:00.688Z,73.94
2018-09-15T05:04:29.354Z,73.89
2018-09-15T05:06:58.039Z,73.90
2018-09-15T05:09:26.686Z,74.25
2018-09-15T05:11:55.379Z,73.92
2018-09-15T05:14:24.024Z,73.79
2018-09-15T05:16:52.666Z,73.69
2018-09-15T05:19:21.328Z,73.82
2018-09-15T05:21:50.014Z,73.47
2018-09-15T05:24:18.752Z,73.26
2018-09-15T05:26:47.527Z,73.34
2018-09-15T05:29:16.255Z,72.83
2018-09-15T05:31:44.930Z,72.41
2018-09-15T05:34:13.625Z,72.59
2018-09-15T05:36:42.314Z,72.55
2018-09-15T05:39:12.899Z,72.04
2018-09-15T05:41:41.595Z,71.10
2018-09-15T05:44:10.534Z,70.43
2018-09-15T05:46:39.444Z,70.11
2018-09-15T05:49:08.148Z,70.18
2018-09-15T05:51:36.802Z,69.78
2018-09-15T05:54:05.455Z,70.03
2018-09-15T05:56:34.149Z,69.62
2018-09-15T05:59:02.820Z,69.51
2018-09-15T06:01:31.635Z,68.93
2018-09-15T06:04:00.335Z,68.80
2018-09-15T06:06:29.001Z,68.50
2018-09-15T06:08:57.668Z,68.87
2018-09-15T06:11:26.328Z,68.13
2018-09-15T06:13:55.026Z,68.60
2018-09-15T06:16:23.662Z,67.71
2018-09-15T06:18:52.369Z,67.22
2018-09-15T06:21:21.052Z,66.94
2018-09-15T06:23:49.690Z,66.79
2018-09-15T06:26:18.659Z,67.05
2018-09-15T06:28:47.416Z,66.55
2018-09-15T06:31:16.113Z,66.08
2018-09-15T06:33:44.787Z,66.64
2018-09-15T06:36:13.453Z,65.66
2018-09-15T06:38:42.222Z,66.14
2018-09-15T06:41:10.971Z,65.63
2018-09-15T06:43:39.698Z,65.18
2018-09-15T06:46:08.402Z,65.44
2018-09-15T06:48:37.062Z,64.61
2018-09-15T06:51:05.862Z,64.48
2018-09-15T06:53:34.506Z,64.45
2018-09-15T06:56:03.231Z,64.11
2018-09-15T06:58:31.981Z,63.63
2018-09-15T07:01:00.820Z,62.59
2018-09-15T07:03:29.510Z,62.46
2018-09-15T07:05:58.188Z,61.75
2018-09-15T07:08:26.885Z,61.02
2018-09-15T07:10:55.644Z,60.54
2018-09-15T07:13:24.323Z,60.75
2018-09-15T07:15:53.027Z,60.05
2018-09-15T07:18:21.727Z,60.33
2018-09-15T07:20:50.529Z,60.78
2018-09-15T07:23:19.207Z,60.90
2018-09-15T07:25:47.870Z,60.36
2018-09-15T07:28:16.556Z,60.06
2018-09-15T07:30:45.185Z,59.51
2018-09-15T07:33:13.855Z,59.63
2018-09-15T07:35:42.525Z,58.91
2018-09-15T07:38:11.227Z,58.67
2018-09-15T07:40:39.871Z,58.67
2018-09-15T07:43:08.540Z,57.73
2018-09-15T07:45:37.178Z,57.52
2018-09-15T07:48:05.947Z,57.25
2018-09-15T07:50:34.622Z,57.80
2018-09-15T07:53:03.324Z,57.43
2018-09-15T07:55:32.040Z,57.43
2018-09-15T07:58:00.965Z,56.93
2018-09-15T08:00:29.554Z,55.24
2018-09-15T08:02:58.218Z,55.70
2018-09-15T08:05:26.885Z,55.45
2018-09-15T08:07:55.531Z,55.85
2018-09-15T08:10:24.310Z,54.87
2018-09-15T08:12:53.035Z,54.48
2018-09-15T08:15:21.660Z,53.33
2018-09-15T08:17:50.336Z,52.27
2018-09-15T08:20:19.047Z,52.65
2018-09-15T08:22:47.670Z,53.62
2018-09-15T08:25:16.376Z,52.95
2018-09-15T08:27:45.110Z,52.25
2018-09-15T08:30:16.503Z,52.43
2018-09-15T08:32:45.222Z,50.33
2018-09-15T08:35:13.938Z,51.09
2018-09-15T08:37:42.684Z,49.90
2018-09-15T08:40:32.839Z,49.00
2018-09-15T08:43:01.611Z,48.70
2018-09-15T08:45:30.744Z,47.68
2018-09-15T08:47:59.444Z,47.73
2018-09-15T08:50:28.094Z,47.00
2018-09-15T08:52:56.767Z,47.10
2018-09-15T08:55:25.423Z,48.38
2018-09-15T08:57:54.060Z,47.17
2018-09-15T09:00:22.789Z,47.37
2018-09-15T09:02:51.455Z,47.84
2018-09-15T09:05:20.083Z,47.94
2018-09-15T09:07:48.727Z,46.52
2018-09-15T09:10:17.474Z,46.52
2018-09-15T13:50:04.619Z,35.04
2018-09-15T13:52:33.385Z,35.80
2018-09-15T13:55:02.121Z,36.60
2018-09-15T13:57:30.898Z,36.81
2018-09-15T13:59:59.595Z,36.65
2018-09-15T14:02:28.361Z,36.21
2018-09-15T14:04:57.136Z,35.84
2018-09-15T14:07:25.809Z,35.91
2018-09-15T14:09:54.507Z,35.88
2018-09-15T14:12:23.155Z,35.44
2018-09-15T14:14:52.003Z,35.67
2018-09-15T14:17:20.669Z,34.95
2018-09-15T14:19:49.395Z,35.81
2018-09-15T14:22:18.148Z,36.94
2018-09-15T14:24:46.847Z,36.49
2018-09-15T14:27:15.531Z,36.72
2018-09-15T14:29:44.192Z,37.60
2018-09-15T14:32:12.807Z,37.79
2018-09-15T14:34:41.528Z,37.57
2018-09-15T14:37:10.145Z,38.41
2018-09-15T14:39:38.857Z,37.82
2018-09-15T14:42:07.575Z,37.89
2018-09-15T14:44:36.261Z,38.66
2018-09-15T14:47:04.868Z,38.69
2018-09-15T14:49:33.590Z,38.63
2018-09-15T14:52:02.246Z,38.49
2018-09-15T14:54:30.932Z,38.79
2018-09-15T14:56:59.651Z,38.48
2018-09-15T14:59:28.358Z,38.76
2018-09-15T15:01:57.110Z,38.75
2018-09-15T15:04:25.786Z,38.82
2018-09-15T15:06:54.508Z,38.50
2018-09-15T15:09:23.206Z,38.17
2018-09-15T15:11:51.826Z,38.13
2018-09-15T15:14:20.527Z,38.13
2018-09-15T15:16:49.183Z,39.24
2018-09-15T15:19:17.859Z,38.99
2018-09-15T15:21:46.510Z,39.01
2018-09-15T15:24:15.255Z,38.48
2018-09-15T15:26:44.034Z,38.72
2018-09-15T15:29:12.706Z,39.51
2018-09-15T15:31:41.380Z,39.62
2018-09-15T15:34:10.067Z,39.91
2018-09-15T15:36:38.739Z,39.11
2018-09-15T15:39:08.683Z,39.96
2018-09-15T15:41:37.310Z,40.37
2018-09-15T15:44:06.023Z,40.78
2018-09-15T15:46:34.771Z,40.57
2018-09-15T15:49:04.167Z,41.09
2018-09-15T15:51:33.147Z,41.37
2018-09-15T15:54:01.842Z,41.68
2018-09-15T15:56:30.536Z,42.70
2018-09-15T15:58:59.168Z,42.04
2018-09-15T16:01:27.881Z,42.45
2018-09-15T16:03:56.534Z,41.76
2018-09-15T16:06:25.234Z,41.62
2018-09-15T16:08:53.961Z,42.03
2018-09-15T16:11:22.684Z,42.51
2018-09-15T16:13:51.633Z,42.51
2018-09-15T16:16:20.271Z,43.09
2018-09-15T16:18:49.040Z,43.27
2018-09-15T16:21:17.755Z,42.69
2018-09-15T16:23:46.518Z,43.57
2018-09-15T16:26:15.196Z,43.04
2018-09-15T16:28:43.913Z,44.18
2018-09-15T16:31:12.600Z,46.19
2018-09-15T16:33:41.328Z,46.76
2018-09-15T16:36:12.322Z,47.94
2018-09-15T16:38:41.039Z,48.46
2018-09-15T16:41:09.671Z,48.06
2018-09-15T16:43:38.669Z,48.21
2018-09-15T16:46:07.460Z,49.45
2018-09-15T16:48:36.227Z,49.76
2018-09-15T16:51:04.979Z,51.02
2018-09-15T16:53:33.830Z,51.19
2018-09-15T16:56:02.935Z,51.41
2018-09-15T16:58:31.586Z,52.06
2018-09-15T17:01:00.739Z,51.70
2018-09-15T17:03:29.514Z,51.01
2018-09-15T17:05:58.184Z,50.80
2018-09-15T17:08:27.207Z,53.26
2018-09-15T17:10:55.967Z,52.45
2018-09-15T17:13:25.227Z,51.85
2018-09-15T17:15:54.157Z,51.50
2018-09-15T17:18:23.676Z,51.07
2018-09-15T17:20:52.290Z,51.90
2018-09-15T17:23:21.039Z,51.59
2018-09-15T17:25:49.775Z,53.21
2018-09-15T17:28:18.496Z,53.23
2018-09-15T17:30:48.565Z,53.75
2018-09-15T17:33:17.426Z,53.85
2018-09-15T17:35:46.721Z,53.29
2018-09-15T17:38:16.306Z,53.41
2018-09-15T17:40:46.855Z,53.59
2018-09-15T17:43:17.193Z,52.91
2018-09-15T17:45:47.054Z,53.39
2018-09-15T17:48:16.222Z,52.78
2018-09-15T17:50:45.302Z,52.65
2018-09-15T17:53:14.684Z,52.84
2018-09-15T17:55:46.138Z,52.72
2018-09-15T17:58:16.149Z,51.54
2018-09-15T18:00:47.234Z,52.47
2018-09-15T18:03:16.711Z,52.03
2018-09-15T18:05:46.731Z,52.41
2018-09-15T18:08:16.743Z,53.32
2018-09-15T18:12:15.347Z,53.56
2018-09-15T18:14:44.402Z,53.80
2018-09-15T18:17:14.103Z,53.97
2018-09-15T18:19:42.768Z,54.10
2018-09-15T18:22:11.511Z,53.85
2018-09-15T18:24:41.016Z,53.91
2018-09-15T18:27:09.699Z,53.92
2018-09-15T18:29:39.329Z,53.93
2018-09-15T18:32:08.952Z,54.30
2018-09-15T18:34:37.809Z,54.61
2018-09-15T18:37:07.506Z,55.24
2018-09-15T18:39:36.134Z,54.97
2018-09-15T18:42:04.865Z,55.54
2018-09-15T18:44:34.088Z,55.50
2018-09-15T18:47:02.789Z,55.31
2018-09-15T18:49:31.571Z,55.13
2018-09-15T18:52:01.613Z,55.64
2018-09-15T18:54:30.533Z,55.64
2018-09-15T18:57:00.672Z,55.77
2018-09-15T18:59:29.391Z,55.42
2018-09-15T19:01:58.692Z,55.68
2018-09-15T19:04:28.996Z,55.52
2018-09-15T19:06:58.934Z,55.97
2018-09-15T19:09:27.757Z,56.13
2018-09-15T19:11:58.945Z,56.53
2018-09-15T19:14:27.635Z,56.55
2018-09-15T19:16:56.721Z,56.52
2018-09-15T19:19:25.723Z,56.93
2018-09-15T19:21:54.471Z,56.73
2018-09-15T19:24:23.140Z,56.82
2018-09-15T19:26:52.133Z,57.07
2018-09-15T19:29:20.832Z,57.48
2018-09-15T19:31:49.854Z,57.67
2018-09-15T19:34:18.953Z,57.77
2018-09-15T19:36:47.842Z,58.21
2018-09-15T19:39:17.427Z,57.94
2018-09-15T19:41:46.109Z,57.98
2018-09-15T19:44:14.749Z,58.48
2018-09-15T19:46:43.431Z,58.31
2018-09-15T19:49:12.126Z,58.28
2018-09-15T19:51:40.822Z,58.33
2018-09-15T19:54:09.515Z,58.18
2018-09-15T19:56:38.189Z,58.52
2018-09-15T19:59:08.048Z,58.89
2018-09-15T20:01:36.707Z,58.97
2018-09-15T20:04:05.403Z,58.98
2018-09-15T20:06:34.174Z,59.41
2018-09-15T20:09:02.962Z,59.02
2018-09-15T20:11:31.651Z,59.04
2018-09-15T20:14:00.443Z,59.26
2018-09-15T20:16:28.304Z,59.45
2018-09-15T20:18:55.775Z,59.64
2018-09-15T20:21:23.095Z,59.45
2018-09-15T20:23:51.806Z,59.48
2018-09-15T20:26:20.513Z,59.55
2018-09-15T20:28:49.148Z,59.94
2018-09-15T20:31:18.076Z,59.64
2018-09-15T20:33:47.464Z,59.55
2018-09-15T20:36:16.229Z,59.39
2018-09-15T20:38:45.041Z,59.28
2018-09-15T20:41:13.754Z,59.36
2018-09-15T20:43:42.443Z,59.32
2018-09-15T20:46:11.117Z,59.31
2018-09-15T20:48:39.800Z,59.00
2018-09-15T20:51:08.444Z,59.43
2018-09-15T20:53:37.138Z,59.61
2018-09-15T20:56:05.888Z,59.44
2018-09-15T20:58:34.624Z,59.48
2018-09-15T21:01:03.260Z,59.52
2018-09-15T21:03:33.424Z,59.50
2018-09-15T21:06:02.416Z,59.29
2018-09-15T21:08:31.304Z,59.66
2018-09-15T21:11:00.324Z,59.49
2018-09-15T21:13:29.340Z,59.34
2018-09-15T21:15:58.143Z,59.48
2018-09-15T21:18:26.848Z,59.48
2018-09-15T21:20:55.531Z,59.12
2018-09-15T21:23:24.234Z,59.02
2018-09-15T21:25:52.915Z,59.08
2018-09-15T21:28:21.551Z,59.16
2018-09-15T21:30:50.192Z,59.27
2018-09-15T21:33:18.847Z,59.05
2018-09-15T21:35:47.546Z,59.33
2018-09-15T21:38:16.241Z,59.65
2018-09-15T21:40:44.888Z,59.63
2018-09-15T21:43:13.545Z,59.71
2018-09-15T21:45:42.199Z,59.73
2018-09-15T21:48:10.835Z,59.58
2018-09-15T21:50:39.583Z,60.49
2018-09-15T21:53:08.258Z,60.35
2018-09-15T21:55:36.915Z,60.50
2018-09-15T21:58:05.576Z,60.63
2018-09-15T22:00:34.644Z,60.70
2018-09-15T22:03:03.892Z,60.80
2018-09-15T22:05:34.189Z,60.92
2018-09-15T22:08:03.061Z,61.18
2018-09-15T22:10:32.262Z,61.34
2018-09-15T22:13:00.954Z,61.85
2018-09-15T22:15:29.642Z,61.99
2018-09-15T22:17:59.284Z,61.96
2018-09-15T22:20:28.563Z,62.09
2018-09-15T22:22:57.329Z,62.12
2018-09-15T22:25:25.991Z,61.99
2018-09-15T22:29:23.967Z,62.38
2018-09-15T22:31:52.750Z,62.66
2018-09-15T22:34:21.413Z,62.99
2018-09-15T22:36:50.231Z,63.31
2018-09-15T22:39:18.887Z,63.36
2018-09-15T22:41:47.580Z,63.58
2018-09-15T22:44:16.336Z,63.82
2018-09-15T22:46:45.101Z,63.64
2018-09-15T22:49:13.791Z,63.96
2018-09-15T22:51:42.433Z,64.16
2018-09-15T22:54:11.346Z,63.75
2018-09-15T22:56:40.185Z,64.29
2018-09-15T22:59:09.001Z,64.25
2018-09-15T23:01:37.835Z,63.83
2018-09-15T23:04:08.864Z,64.18
2018-09-15T23:06:37.691Z,63.97
2018-09-15T23:09:08.485Z,63.87
2018-09-15T23:11:37.246Z,64.09
2018-09-15T23:14:05.946Z,64.09
2018-09-15T23:16:34.631Z,64.07
2018-09-15T23:19:03.320Z,64.46
2018-09-15T23:21:32.401Z,64.33
2018-09-15T23:24:01.156Z,64.30
2018-09-15T23:26:29.815Z,64.60
2018-09-15T23:28:58.496Z,64.75
2018-09-15T23:31:27.140Z,64.89
2018-09-15T23:33:55.817Z,64.89
2018-09-15T23:36:24.502Z,65.09
2018-09-15T23:38:53.248Z,64.83
2018-09-15T23:41:21.945Z,65.05
2018-09-15T23:43:51.823Z,64.92
2018-09-15T23:46:20.554Z,64.95
2018-09-15T23:48:49.228Z,65.14
2018-09-15T23:51:17.955Z,65.43
2018-09-15T23:53:46.597Z,65.76
2018-09-15T23:56:15.248Z,65.78
2018-09-15T23:58:43.963Z,65.84
